createdAt,value
2018-03-26T02:03:17.183Z,1.80
2018-03-26T02:05:45.784Z,1.80
2018-03-26T02:08:14.138Z,1.80
2018-03-26T02:10:41.663Z,1.80
2018-03-26T02:13:09.179Z,1.90
2018-03-26T02:15:36.971Z,1.90
2018-03-26T02:18:04.448Z,2.00
2018-03-26T02:20:32.187Z,2.00
2018-03-26T02:22:59.680Z,2.10
2018-03-26T02:25:27.549Z,2.10
2018-03-26T02:27:55.043Z,2.20
2018-03-26T02:30:22.541Z,2.20
2018-03-26T02:32:50.558Z,2.20
2018-03-26T02:35:18.891Z,2.30
2018-03-26T02:37:46.394Z,2.30
2018-03-26T02:40:14.653Z,2.40
2018-03-26T02:42:43.233Z,2.40
2018-03-26T02:45:10.719Z,2.40
2018-03-26T02:47:38.467Z,2.40
2018-03-26T02:50:05.965Z,2.40
2018-03-26T02:52:33.682Z,2.40
2018-03-26T02:55:01.956Z,2.40
2018-03-26T02:57:29.714Z,2.40
2018-03-26T02:59:57.993Z,2.40
2018-03-26T03:02:25.904Z,2.30
2018-03-26T03:04:53.470Z,2.30
2018-03-26T03:07:20.975Z,2.30
2018-03-26T03:09:49.604Z,2.20
2018-03-26T03:12:17.103Z,2.20
2018-03-26T03:14:44.590Z,2.10
2018-03-26T03:17:12.868Z,2.10
2018-03-26T03:19:41.141Z,2.10
2018-03-26T03:22:08.696Z,2.00
2018-03-26T03:24:37.465Z,2.10
2018-03-26T03:27:05.018Z,2.00
2018-03-26T03:29:32.523Z,2.00
2018-03-26T03:32:00.251Z,2.00
2018-03-26T03:34:28.078Z,2.10
2018-03-26T03:36:55.586Z,2.00
2018-03-26T03:39:23.850Z,2.00
2018-03-26T03:41:51.672Z,2.00
2018-03-26T03:44:19.354Z,2.00
2018-03-26T03:46:46.846Z,1.90
2018-03-26T03:49:15.425Z,1.90
2018-03-26T03:51:43.697Z,1.90
2018-03-26T03:54:11.179Z,1.90
2018-03-26T03:56:38.683Z,1.90
2018-03-26T03:59:06.172Z,1.90
2018-03-26T04:01:34.497Z,2.00
2018-03-26T04:04:02.408Z,1.90
2018-03-26T04:06:29.930Z,2.00
2018-03-26T04:08:57.454Z,2.00
2018-03-26T04:11:24.959Z,2.00
2018-03-26T04:13:52.442Z,2.10
2018-03-26T04:16:20.178Z,2.00
2018-03-26T04:18:47.743Z,2.10
2018-03-26T04:21:15.460Z,2.00
2018-03-26T04:23:43.202Z,2.00
2018-03-26T04:26:11.476Z,1.90
2018-03-26T04:28:39.967Z,2.00
2018-03-26T04:31:08.290Z,1.90
2018-03-26T04:33:36.045Z,1.90
2018-03-26T04:36:03.686Z,1.90
2018-03-26T04:38:31.195Z,1.90
2018-03-26T04:40:59.232Z,1.90
2018-03-26T04:43:26.737Z,1.80
2018-03-26T04:45:55.028Z,1.70
2018-03-26T04:48:23.283Z,1.60
2018-03-26T04:50:51.052Z,1.60
2018-03-26T04:53:18.553Z,1.50
2018-03-26T04:55:46.291Z,1.50
2018-03-26T04:58:14.636Z,1.50
2018-03-26T05:00:42.360Z,1.50
2018-03-26T05:03:09.879Z,1.50
2018-03-26T05:05:38.523Z,1.50
2018-03-26T05:08:06.021Z,1.50
2018-03-26T05:10:34.339Z,1.50
2018-03-26T05:13:01.928Z,1.50
2018-03-26T05:15:29.452Z,1.50
2018-03-26T05:17:56.996Z,1.50
2018-03-26T05:20:24.480Z,1.50
2018-03-26T05:22:52.204Z,1.40
2018-03-26T05:25:20.456Z,1.50
2018-03-26T05:27:48.399Z,1.60
2018-03-26T05:30:15.948Z,1.60
2018-03-26T05:32:43.462Z,1.60
2018-03-26T05:35:11.761Z,1.80
2018-03-26T05:37:39.675Z,1.80
2018-03-26T05:40:07.165Z,1.90
2018-03-26T05:42:34.703Z,2.00
2018-03-26T05:45:02.195Z,2.90
2018-03-26T05:47:29.697Z,2.90
2018-03-26T05:49:57.177Z,2.90
2018-03-26T05:52:25.671Z,2.90
2018-03-26T05:54:54.191Z,2.90
2018-03-26T05:57:21.706Z,2.90
2018-03-26T05:59:49.220Z,2.90
2018-03-26T06:02:16.982Z,3.00
2018-03-26T06:04:44.500Z,3.10
2018-03-26T06:07:12.752Z,3.20
2018-03-26T06:09:40.443Z,3.20
2018-03-26T06:12:07.946Z,3.30
2018-03-26T06:14:35.836Z,3.40
2018-03-26T06:17:15.330Z,3.50
2018-03-26T06:19:43.068Z,3.60
2018-03-26T06:22:10.858Z,3.60
2018-03-26T06:24:38.373Z,3.70
2018-03-26T06:27:06.116Z,3.80
2018-03-26T06:29:33.623Z,3.80
2018-03-26T06:32:01.380Z,3.90
2018-03-26T06:34:28.969Z,4.00
2018-03-26T06:37:11.155Z,4.20
2018-03-26T06:39:38.710Z,4.40
2018-03-26T06:42:06.235Z,4.50
2018-03-26T06:44:33.782Z,4.60
2018-03-26T06:47:01.430Z,4.60
2018-03-26T06:49:29.407Z,4.70
2018-03-26T06:51:57.042Z,4.70
2018-03-26T06:54:24.560Z,4.80
2018-03-26T06:56:57.569Z,4.90
2018-03-26T07:10:24.174Z,5.40
2018-03-26T07:12:52.123Z,5.60
2018-03-26T07:15:20.048Z,5.70
2018-03-26T07:17:47.556Z,5.90
2018-03-26T07:20:15.096Z,6.50
2018-03-26T07:22:42.935Z,7.60
2018-03-26T07:25:10.426Z,8.70
2018-03-26T07:27:38.006Z,10.20
2018-03-26T07:30:07.248Z,12.20
2018-03-26T07:32:35.199Z,12.20
2018-03-26T07:35:03.602Z,12.90
2018-03-26T07:37:31.099Z,13.70
2018-03-26T07:39:59.008Z,12.70
2018-03-26T07:42:26.539Z,12.40
2018-03-26T07:44:54.038Z,11.30
2018-03-26T07:47:21.761Z,10.50
2018-03-26T07:49:50.279Z,10.00
2018-03-26T07:52:17.762Z,9.90
2018-03-26T07:54:45.790Z,10.30
2018-03-26T07:57:14.219Z,11.10
2018-03-26T07:59:41.726Z,11.00
2018-03-26T08:02:10.019Z,10.10
2018-03-26T08:04:39.297Z,10.10
2018-03-26T08:07:07.716Z,9.70
2018-03-26T08:09:35.212Z,9.70
2018-03-26T08:12:02.923Z,9.60
2018-03-26T08:14:30.898Z,9.40
2018-03-26T08:16:58.816Z,9.40
2018-03-26T08:19:26.717Z,9.90
2018-03-26T08:21:54.275Z,10.60
2018-03-26T08:24:22.050Z,11.00
2018-03-26T08:26:49.604Z,11.30
2018-03-26T08:29:17.665Z,10.80
2018-03-26T08:31:45.170Z,11.00
2018-03-26T08:34:12.814Z,11.30
2018-03-26T08:36:40.890Z,10.90
2018-03-26T08:39:08.773Z,10.80
2018-03-26T08:41:36.300Z,10.70
2018-03-26T08:44:04.167Z,11.50
2018-03-26T08:46:32.011Z,11.20
2018-03-26T08:48:59.573Z,11.00
2018-03-26T08:51:27.637Z,10.60
2018-03-26T08:53:55.931Z,10.60
2018-03-26T08:56:23.778Z,10.60
2018-03-26T08:58:51.373Z,10.80
2018-03-26T09:01:19.414Z,11.00
2018-03-26T09:03:47.084Z,11.10
2018-03-26T09:06:15.376Z,11.00
2018-03-26T09:08:42.923Z,11.00
2018-03-26T09:11:10.642Z,11.40
2018-03-26T09:13:38.153Z,11.60
2018-03-26T09:16:05.750Z,11.40
2018-03-26T09:18:33.281Z,11.20
2018-03-26T09:21:00.803Z,10.80
2018-03-26T09:23:28.302Z,10.50
2018-03-26T09:25:56.337Z,10.30
2018-03-26T09:28:26.208Z,10.10
2018-03-26T09:30:53.839Z,10.00
2018-03-26T09:33:21.577Z,9.90
2018-03-26T09:35:49.564Z,10.10
2018-03-26T09:38:17.148Z,10.50
2018-03-26T09:40:44.729Z,11.20
2018-03-26T09:43:12.452Z,11.50
2018-03-26T09:45:40.249Z,11.40
2018-03-26T09:48:08.173Z,11.40
2018-03-26T09:50:35.693Z,11.30
2018-03-26T09:53:03.582Z,11.20
2018-03-26T09:55:31.869Z,11.90
2018-03-26T09:57:59.711Z,11.90
2018-03-26T10:00:33.042Z,12.90
2018-03-26T10:03:12.191Z,13.70
2018-03-26T10:05:44.775Z,14.40
2018-03-26T10:08:14.401Z,15.10
2018-03-26T10:10:41.894Z,15.10
2018-03-26T10:13:12.857Z,14.90
2018-03-26T10:15:40.694Z,14.50
2018-03-26T10:18:08.221Z,14.10
2018-03-26T10:20:36.079Z,14.00
2018-03-26T10:23:04.991Z,13.20
2018-03-26T10:25:33.036Z,13.20
2018-03-26T10:28:00.962Z,12.70
2018-03-26T10:30:29.107Z,12.50
2018-03-26T10:32:57.278Z,12.00
2018-03-26T10:35:25.418Z,12.00
2018-03-26T10:37:56.025Z,12.00
2018-03-26T10:40:23.703Z,11.60
2018-03-26T10:42:52.030Z,11.40
2018-03-26T10:45:19.676Z,11.40
2018-03-26T10:47:47.488Z,11.50
2018-03-26T10:50:15.754Z,11.40
2018-03-26T10:52:43.260Z,11.40
2018-03-26T10:55:11.207Z,11.20
2018-03-26T10:57:38.731Z,11.10
2018-03-26T11:00:06.265Z,11.00
2018-03-26T11:02:34.487Z,11.20
2018-03-26T11:05:02.970Z,11.50
2018-03-26T11:07:32.575Z,11.70
2018-03-26T11:10:01.162Z,11.70
2018-03-26T11:12:29.074Z,11.70
2018-03-26T11:14:56.595Z,11.40
2018-03-26T11:17:24.376Z,11.10
2018-03-26T11:19:51.856Z,11.10
2018-03-26T11:22:19.747Z,11.00
2018-03-26T11:24:47.246Z,10.90
2018-03-26T11:27:15.088Z,10.90
2018-03-26T11:29:43.426Z,11.10
2018-03-26T11:32:11.772Z,11.00
2018-03-26T11:34:39.425Z,11.10
2018-03-26T11:37:07.152Z,11.50
2018-03-26T11:39:34.644Z,11.80
2018-03-26T11:42:02.446Z,12.10
2018-03-26T11:44:31.266Z,12.20
2018-03-26T11:46:59.083Z,12.30
2018-03-26T11:49:26.624Z,12.50
2018-03-26T11:51:54.894Z,12.20
2018-03-26T11:54:23.246Z,11.80
2018-03-26T11:56:51.414Z,11.70
2018-03-26T11:59:27.992Z,11.30
2018-03-26T12:01:56.276Z,11.00
2018-03-26T12:04:24.718Z,10.60
2018-03-26T12:06:52.361Z,10.30
2018-03-26T12:09:19.964Z,10.00
2018-03-26T12:11:47.944Z,9.80
2018-03-26T12:14:15.719Z,9.70
2018-03-26T12:16:43.274Z,9.60
2018-03-26T12:19:11.274Z,9.20
2018-03-26T12:21:38.755Z,9.10
2018-03-26T12:24:19.669Z,9.00
2018-03-26T12:26:47.270Z,8.90
2018-03-26T12:29:26.834Z,9.00
2018-03-26T12:31:54.333Z,8.90
2018-03-26T12:34:34.486Z,8.70
2018-03-26T12:37:02.155Z,8.80
2018-03-26T12:39:29.670Z,8.80
2018-03-26T12:41:57.537Z,8.70
2018-03-26T12:44:37.111Z,8.80
2018-03-26T12:47:05.566Z,8.90
2018-03-26T12:49:33.425Z,9.00
2018-03-26T12:52:23.930Z,9.00
2018-03-26T12:54:51.420Z,9.20
2018-03-26T12:57:31.144Z,9.20
2018-03-26T12:59:58.665Z,9.30
2018-03-26T13:02:27.940Z,9.20
2018-03-26T13:04:55.460Z,9.20
2018-03-26T13:07:23.640Z,9.10
2018-03-26T13:09:51.145Z,9.00
2018-03-26T13:12:18.869Z,8.80
2018-03-26T13:14:46.860Z,8.70
2018-03-26T14:31:56.179Z,9.30
2018-03-26T14:34:23.680Z,9.30
2018-03-26T14:36:51.972Z,9.20
2018-03-26T14:39:19.524Z,9.30
2018-03-26T14:41:47.284Z,9.20
2018-03-26T14:44:16.485Z,9.10
2018-03-26T14:46:43.996Z,9.00
2018-03-26T14:49:13.533Z,8.90
2018-03-26T14:51:42.159Z,8.90
2018-03-26T14:54:10.743Z,8.80
2018-03-26T14:56:38.261Z,8.80
2018-03-26T14:59:05.757Z,8.90
2018-03-26T15:01:33.259Z,8.90
2018-03-26T15:04:01.555Z,9.00
2018-03-26T15:06:29.061Z,9.00
2018-03-26T15:08:57.105Z,9.10
2018-03-26T15:11:25.127Z,9.00
2018-03-26T15:13:53.405Z,8.80
2018-03-26T15:16:20.973Z,8.80
2018-03-26T15:18:48.850Z,8.70
2018-03-26T15:21:16.370Z,8.80
2018-03-26T15:23:44.507Z,8.80
2018-03-26T15:26:12.046Z,8.80
2018-03-26T15:28:39.929Z,8.90
2018-03-26T15:31:07.445Z,9.00
2018-03-26T15:33:34.962Z,9.00
2018-03-26T15:36:02.906Z,9.10
2018-03-26T15:38:31.194Z,9.10
2018-03-26T15:40:58.748Z,9.10
2018-03-26T15:43:26.336Z,9.10
2018-03-26T15:45:53.990Z,9.10
2018-03-26T15:48:21.871Z,9.20
2018-03-26T15:50:51.522Z,9.10
2018-03-26T15:53:20.328Z,9.00
2018-03-26T15:55:48.271Z,9.00
2018-03-26T15:58:16.142Z,9.00
2018-03-26T16:00:43.927Z,8.90
2018-03-26T16:03:17.399Z,8.80
2018-03-26T16:05:44.971Z,8.80
2018-03-26T16:08:13.872Z,8.80
2018-03-26T16:10:42.006Z,8.80
2018-03-26T16:13:10.254Z,8.70
2018-03-26T16:15:37.769Z,8.60
2018-03-26T16:18:05.325Z,8.50
2018-03-26T16:20:32.845Z,8.30
2018-03-26T16:23:00.373Z,8.20
2018-03-26T16:25:28.140Z,8.10
2018-03-26T16:27:55.694Z,8.00
2018-03-26T16:30:23.217Z,7.90
2018-03-26T16:32:51.504Z,7.90
2018-03-26T16:35:19.641Z,7.90
2018-03-26T16:37:48.643Z,7.80
2018-03-26T16:40:17.045Z,7.70
2018-03-26T16:42:44.788Z,7.70
2018-03-26T16:45:13.091Z,7.70
2018-03-26T16:47:40.616Z,7.70
2018-03-26T16:50:08.268Z,7.60
2018-03-26T16:52:37.344Z,7.50
2018-03-26T16:55:05.285Z,7.40
2018-03-26T16:57:32.962Z,7.40
2018-03-26T17:00:01.442Z,7.40
2018-03-26T17:02:29.278Z,7.40
2018-03-26T17:04:56.806Z,7.30
2018-03-26T17:07:24.911Z,7.30
2018-03-26T17:09:52.758Z,7.20
2018-03-26T17:12:20.647Z,7.20
2018-03-26T17:14:48.167Z,7.20
2018-03-26T17:17:17.060Z,7.10
2018-03-26T17:19:45.847Z,7.10
2018-03-26T17:22:17.973Z,7.10
2018-03-26T17:25:01.527Z,7.10
2018-03-26T17:27:32.345Z,7.00
2018-03-26T17:30:04.678Z,7.00
2018-03-26T17:32:36.231Z,7.00
2018-03-26T17:35:05.893Z,7.00
2018-03-26T17:37:33.810Z,6.90
2018-03-26T17:40:01.808Z,6.90
2018-03-26T17:42:29.307Z,6.90
2018-03-26T17:44:57.112Z,6.80
2018-03-26T17:47:24.613Z,6.80
2018-03-26T17:49:52.723Z,6.80
2018-03-26T17:52:21.638Z,6.70
2018-03-26T17:54:49.783Z,6.80
2018-03-26T17:57:19.555Z,6.70
2018-03-26T17:59:47.204Z,6.70
2018-03-26T18:02:15.344Z,6.70
2018-03-26T18:04:46.370Z,6.70
2018-03-26T18:07:14.436Z,6.70
2018-03-26T18:09:50.463Z,6.70
2018-03-26T18:12:18.956Z,6.60
2018-03-26T18:14:47.998Z,6.60
2018-03-26T18:17:16.156Z,6.60
2018-03-26T18:19:43.691Z,6.60
2018-03-26T18:22:11.811Z,6.50
2018-03-26T18:24:40.080Z,6.50
2018-03-26T18:27:08.144Z,6.50
2018-03-26T18:29:37.378Z,6.50
2018-03-26T18:32:05.934Z,6.50
2018-03-26T18:34:33.465Z,6.40
2018-03-26T18:37:06.171Z,6.30
2018-03-26T18:39:33.763Z,6.20
2018-03-26T18:42:01.296Z,6.10
2018-03-26T18:44:35.990Z,6.00
2018-03-26T18:47:04.629Z,5.90
2018-03-26T18:49:32.134Z,5.90
2018-03-26T18:52:00.190Z,5.80
2018-03-26T18:54:27.720Z,5.80
2018-03-26T18:56:56.908Z,5.70
2018-03-26T18:59:26.566Z,5.60
2018-03-26T19:01:55.668Z,5.60
2018-03-26T19:04:23.754Z,5.60
2018-03-26T19:06:53.664Z,5.60
2018-03-26T19:09:21.224Z,5.60
2018-03-26T19:11:49.394Z,5.50
2018-03-26T19:14:16.935Z,5.50
2018-03-26T19:16:45.573Z,5.40
2018-03-26T19:19:13.089Z,5.40
2018-03-26T19:21:41.689Z,5.40
2018-03-26T19:24:09.182Z,5.40
2018-03-26T19:26:36.679Z,5.40
2018-03-26T19:29:04.298Z,5.40
2018-03-26T19:31:32.001Z,5.40
2018-03-26T19:34:00.093Z,5.40
2018-03-26T19:36:29.049Z,5.40
2018-03-26T19:38:56.771Z,5.40
2018-03-26T19:41:24.370Z,5.40
2018-03-26T19:43:51.995Z,5.40
2018-03-26T19:46:19.626Z,5.40
2018-03-26T19:48:47.534Z,5.40
2018-03-26T19:51:15.023Z,5.40
2018-03-26T19:53:42.842Z,5.40
2018-03-26T19:56:10.352Z,5.40
2018-03-26T19:58:37.910Z,5.40
2018-03-26T20:01:05.423Z,5.40
2018-03-26T20:03:32.968Z,5.40
2018-03-26T20:06:01.364Z,5.30
2018-03-26T20:08:29.822Z,5.40
2018-03-26T20:10:57.322Z,5.30
2018-03-26T20:13:24.826Z,5.20
2018-03-26T20:15:52.354Z,5.20
2018-03-26T20:18:19.929Z,5.30
2018-03-26T20:20:47.457Z,5.20
2018-03-26T20:23:15.480Z,5.20
2018-03-26T20:25:42.998Z,5.20
2018-03-26T20:28:11.249Z,5.10
2018-03-26T20:30:39.193Z,5.10
2018-03-26T20:33:06.724Z,5.10
2018-03-26T20:35:34.630Z,5.10
2018-03-26T20:38:02.295Z,5.10
2018-03-26T20:40:29.788Z,5.10
2018-03-26T20:42:57.582Z,5.10
2018-03-26T20:45:25.255Z,5.00
2018-03-26T20:47:52.749Z,5.00
2018-03-26T20:50:20.253Z,5.00
2018-03-26T20:52:48.132Z,5.00
2018-03-26T20:55:15.626Z,5.00
2018-03-26T20:57:43.462Z,5.00
2018-03-26T21:00:11.109Z,4.90
2018-03-26T21:02:38.670Z,4.90
2018-03-26T21:05:07.544Z,4.90
2018-03-26T21:07:35.056Z,4.90
2018-03-26T21:10:03.307Z,4.90
2018-03-26T21:12:30.840Z,4.90
2018-03-26T21:14:59.429Z,4.90
2018-03-26T21:17:26.931Z,4.90
2018-03-26T21:19:54.623Z,4.80
2018-03-26T21:22:22.675Z,4.80
2018-03-26T21:24:50.198Z,4.80
2018-03-26T21:27:18.062Z,4.80
2018-03-26T21:29:45.583Z,4.80
2018-03-26T21:32:13.110Z,4.70
2018-03-26T21:34:40.626Z,4.70
2018-03-26T21:37:08.142Z,4.70
2018-03-26T21:39:35.655Z,4.70
2018-03-26T21:42:03.613Z,4.70
2018-03-26T21:44:31.178Z,4.70
2018-03-26T21:46:59.339Z,4.70
2018-03-26T21:49:27.035Z,4.70
2018-03-26T21:51:54.549Z,4.70
2018-03-26T21:54:22.568Z,4.70
2018-03-26T21:56:50.092Z,4.70
2018-03-26T21:59:17.750Z,4.70
2018-03-26T22:01:45.300Z,4.70
2018-03-26T22:04:13.187Z,4.70
2018-03-26T22:06:40.774Z,4.70
2018-03-26T22:09:08.528Z,4.70
2018-03-26T22:11:36.028Z,4.70
2018-03-26T22:14:03.556Z,4.80
2018-03-26T22:16:31.386Z,4.80
2018-03-26T22:18:58.888Z,4.80
2018-03-26T22:21:26.918Z,4.80
2018-03-26T22:23:54.405Z,4.80
2018-03-26T22:26:21.904Z,4.80
2018-03-26T22:28:49.690Z,4.80
2018-03-26T22:31:17.631Z,4.80
2018-03-26T22:33:45.178Z,4.80
2018-03-26T22:36:12.657Z,4.80
2018-03-26T22:38:40.183Z,4.70
2018-03-26T22:41:07.698Z,4.80
2018-03-26T22:43:35.246Z,4.70
2018-03-26T22:46:03.527Z,4.70
2018-03-26T22:48:31.088Z,4.70
2018-03-26T22:50:58.771Z,4.70
2018-03-26T22:53:26.284Z,4.70
2018-03-26T22:55:53.770Z,4.70
2018-03-26T22:58:21.635Z,4.60
